sensor_id;sensor_type;location;lat;lon;timestamp;temperature;humidity
60242;SHT30;46103;52.076;113.488;2023-07-13T00:02:48;23.34;55.30
60242;SHT30;46103;52.076;113.488;2023-07-13T00:05:59;23.34;55.22
60242;SHT30;46103;52.076;113.488;2023-07-13T00:09:03;23.57;55.08
60242;SHT30;46103;52.076;113.488;2023-07-13T00:12:21;23.79;54.47
60242;SHT30;46103;52.076;113.488;2023-07-13T00:15:25;23.67;54.57
60242;SHT30;46103;52.076;113.488;2023-07-13T00:18:29;23.73;54.09
60242;SHT30;46103;52.076;113.488;2023-07-13T00:21:33;23.94;54.32
60242;SHT30;46103;52.076;113.488;2023-07-13T00:24:37;24.14;53.98
60242;SHT30;46103;52.076;113.488;2023-07-13T00:27:46;24.29;54.31
60242;SHT30;46103;52.076;113.488;2023-07-13T00:30:51;24.35;54.39
60242;SHT30;46103;52.076;113.488;2023-07-13T00:33:55;24.36;54.28
60242;SHT30;46103;52.076;113.488;2023-07-13T00:36:58;24.48;53.99
60242;SHT30;46103;52.076;113.488;2023-07-13T00:40:03;24.63;53.67
60242;SHT30;46103;52.076;113.488;2023-07-13T00:43:15;24.80;53.43
60242;SHT30;46103;52.076;113.488;2023-07-13T00:46:21;24.88;53.63
60242;SHT30;46103;52.076;113.488;2023-07-13T00:49:27;24.95;53.48
60242;SHT30;46103;52.076;113.488;2023-07-13T00:52:31;25.01;53.76
60242;SHT30;46103;52.076;113.488;2023-07-13T00:55:36;24.91;53.52
60242;SHT30;46103;52.076;113.488;2023-07-13T00:58:39;24.84;53.81
60242;SHT30;46103;52.076;113.488;2023-07-13T01:01:43;24.69;54.38
60242;SHT30;46103;52.076;113.488;2023-07-13T01:04:46;24.87;54.12
60242;SHT30;46103;52.076;113.488;2023-07-13T01:07:51;24.94;53.53
60242;SHT30;46103;52.076;113.488;2023-07-13T01:10:56;24.88;53.74
60242;SHT30;46103;52.076;113.488;2023-07-13T01:14:02;24.90;53.23
60242;SHT30;46103;52.076;113.488;2023-07-13T01:17:08;25.08;53.10
60242;SHT30;46103;52.076;113.488;2023-07-13T01:20:12;25.28;52.77
60242;SHT30;46103;52.076;113.488;2023-07-13T01:23:16;25.52;52.33
60242;SHT30;46103;52.076;113.488;2023-07-13T01:26:19;25.76;51.66
60242;SHT30;46103;52.076;113.488;2023-07-13T01:29:24;25.86;51.51
60242;SHT30;46103;52.076;113.488;2023-07-13T01:32:27;25.97;51.31
60242;SHT30;46103;52.076;113.488;2023-07-13T01:35:31;26.16;50.78
60242;SHT30;46103;52.076;113.488;2023-07-13T01:38:35;25.90;51.64
60242;SHT30;46103;52.076;113.488;2023-07-13T01:41:39;25.86;51.52
60242;SHT30;46103;52.076;113.488;2023-07-13T01:44:43;26.00;51.26
60242;SHT30;46103;52.076;113.488;2023-07-13T01:47:48;26.25;50.97
60242;SHT30;46103;52.076;113.488;2023-07-13T01:50:52;26.31;50.78
60242;SHT30;46103;52.076;113.488;2023-07-13T01:53:57;26.08;50.99
60242;SHT30;46103;52.076;113.488;2023-07-13T01:57:03;26.00;51.04
60242;SHT30;46103;52.076;113.488;2023-07-13T02:00:10;25.91;51.09
60242;SHT30;46103;52.076;113.488;2023-07-13T02:03:21;26.02;51.07
60242;SHT30;46103;52.076;113.488;2023-07-13T02:06:25;26.37;51.01
60242;SHT30;46103;52.076;113.488;2023-07-13T02:09:30;26.75;49.86
60242;SHT30;46103;52.076;113.488;2023-07-13T02:12:34;26.80;49.67
60242;SHT30;46103;52.076;113.488;2023-07-13T02:15:39;26.72;49.32
60242;SHT30;46103;52.076;113.488;2023-07-13T02:18:47;26.60;49.62
60242;SHT30;46103;52.076;113.488;2023-07-13T02:21:51;26.76;49.34
60242;SHT30;46103;52.076;113.488;2023-07-13T02:24:55;27.02;49.38
60242;SHT30;46103;52.076;113.488;2023-07-13T02:28:00;27.40;47.92
60242;SHT30;46103;52.076;113.488;2023-07-13T02:31:09;27.45;48.07
60242;SHT30;46103;52.076;113.488;2023-07-13T02:34:14;27.61;47.51
60242;SHT30;46103;52.076;113.488;2023-07-13T02:37:18;27.38;47.26
60242;SHT30;46103;52.076;113.488;2023-07-13T02:40:21;27.95;47.11
60242;SHT30;46103;52.076;113.488;2023-07-13T02:43:26;28.07;46.74
60242;SHT30;46103;52.076;113.488;2023-07-13T02:46:29;28.52;46.23
60242;SHT30;46103;52.076;113.488;2023-07-13T02:49:33;28.34;46.42
60242;SHT30;46103;52.076;113.488;2023-07-13T02:52:37;28.21;46.78
60242;SHT30;46103;52.076;113.488;2023-07-13T02:55:40;27.55;47.50
60242;SHT30;46103;52.076;113.488;2023-07-13T02:58:49;27.34;48.55
60242;SHT30;46103;52.076;113.488;2023-07-13T03:01:54;27.45;48.29
60242;SHT30;46103;52.076;113.488;2023-07-13T03:04:58;27.47;47.30
60242;SHT30;46103;52.076;113.488;2023-07-13T03:08:02;27.40;48.43
60242;SHT30;46103;52.076;113.488;2023-07-13T03:11:08;27.84;47.10
60242;SHT30;46103;52.076;113.488;2023-07-13T03:14:14;27.82;47.72
60242;SHT30;46103;52.076;113.488;2023-07-13T03:17:18;28.05;46.63
60242;SHT30;46103;52.076;113.488;2023-07-13T03:20:21;28.24;46.64
60242;SHT30;46103;52.076;113.488;2023-07-13T03:23:25;28.48;46.33
60242;SHT30;46103;52.076;113.488;2023-07-13T03:26:29;28.58;45.27
60242;SHT30;46103;52.076;113.488;2023-07-13T03:29:33;28.30;45.66
60242;SHT30;46103;52.076;113.488;2023-07-13T03:32:37;28.40;45.40
60242;SHT30;46103;52.076;113.488;2023-07-13T03:35:40;28.50;46.02
60242;SHT30;46103;52.076;113.488;2023-07-13T03:38:49;28.37;44.69
60242;SHT30;46103;52.076;113.488;2023-07-13T03:41:56;28.39;44.66
60242;SHT30;46103;52.076;113.488;2023-07-13T03:45:01;28.82;44.34
60242;SHT30;46103;52.076;113.488;2023-07-13T03:48:06;29.37;43.05
60242;SHT30;46103;52.076;113.488;2023-07-13T03:51:11;29.29;43.17
60242;SHT30;46103;52.076;113.488;2023-07-13T03:54:17;29.27;43.45
60242;SHT30;46103;52.076;113.488;2023-07-13T03:57:20;28.99;44.38
60242;SHT30;46103;52.076;113.488;2023-07-13T04:00:24;28.89;43.32
60242;SHT30;46103;52.076;113.488;2023-07-13T04:03:29;28.79;43.11
60242;SHT30;46103;52.076;113.488;2023-07-13T04:06:36;28.76;43.69
60242;SHT30;46103;52.076;113.488;2023-07-13T04:09:46;28.96;42.77
60242;SHT30;46103;52.076;113.488;2023-07-13T04:12:50;28.85;43.03
60242;SHT30;46103;52.076;113.488;2023-07-13T04:15:54;28.69;41.74
60242;SHT30;46103;52.076;113.488;2023-07-13T04:18:57;28.44;43.13
60242;SHT30;46103;52.076;113.488;2023-07-13T04:22:04;28.44;42.92
60242;SHT30;46103;52.076;113.488;2023-07-13T04:25:08;28.45;42.73
60242;SHT30;46103;52.076;113.488;2023-07-13T04:28:13;28.17;45.02
60242;SHT30;46103;52.076;113.488;2023-07-13T04:31:17;28.02;45.87
60242;SHT30;46103;52.076;113.488;2023-07-13T04:34:22;27.97;46.34
60242;SHT30;46103;52.076;113.488;2023-07-13T04:37:27;27.72;46.58
60242;SHT30;46103;52.076;113.488;2023-07-13T04:40:33;27.42;47.26
60242;SHT30;46103;52.076;113.488;2023-07-13T04:43:37;26.60;49.56
60242;SHT30;46103;52.076;113.488;2023-07-13T04:46:41;26.14;51.13
60242;SHT30;46103;52.076;113.488;2023-07-13T04:49:46;26.05;50.62
60242;SHT30;46103;52.076;113.488;2023-07-13T04:52:51;25.91;51.10
60242;SHT30;46103;52.076;113.488;2023-07-13T04:55:56;25.98;49.61
60242;SHT30;46103;52.076;113.488;2023-07-13T04:59:02;25.97;50.10
60242;SHT30;46103;52.076;113.488;2023-07-13T05:02:07;26.11;49.91
60242;SHT30;46103;52.076;113.488;2023-07-13T05:05:13;26.45;49.51
60242;SHT30;46103;52.076;113.488;2023-07-13T05:08:18;27.08;48.42
60242;SHT30;46103;52.076;113.488;2023-07-13T05:11:23;27.82;47.19
60242;SHT30;46103;52.076;113.488;2023-07-13T05:14:28;28.12;46.29
60242;SHT30;46103;52.076;113.488;2023-07-13T05:17:33;28.43;45.81
60242;SHT30;46103;52.076;113.488;2023-07-13T05:20:37;28.51;45.96
60242;SHT30;46103;52.076;113.488;2023-07-13T05:23:42;28.74;45.32
60242;SHT30;46103;52.076;113.488;2023-07-13T05:26:47;28.54;45.77
60242;SHT30;46103;52.076;113.488;2023-07-13T05:29:51;28.52;46.15
60242;SHT30;46103;52.076;113.488;2023-07-13T05:32:56;28.14;45.64
60242;SHT30;46103;52.076;113.488;2023-07-13T05:36:00;28.72;45.37
60242;SHT30;46103;52.076;113.488;2023-07-13T05:39:04;28.48;43.27
60242;SHT30;46103;52.076;113.488;2023-07-13T05:42:08;27.99;45.30
60242;SHT30;46103;52.076;113.488;2023-07-13T05:45:11;27.52;46.37
60242;SHT30;46103;52.076;113.488;2023-07-13T05:48:15;27.61;46.15
60242;SHT30;46103;52.076;113.488;2023-07-13T05:51:21;27.81;46.82
60242;SHT30;46103;52.076;113.488;2023-07-13T05:54:24;27.82;46.72
60242;SHT30;46103;52.076;113.488;2023-07-13T05:57:29;28.02;46.26
60242;SHT30;46103;52.076;113.488;2023-07-13T06:00:33;28.20;46.25
60242;SHT30;46103;52.076;113.488;2023-07-13T06:03:37;28.25;45.86
60242;SHT30;46103;52.076;113.488;2023-07-13T06:06:41;28.27;46.31
60242;SHT30;46103;52.076;113.488;2023-07-13T06:09:44;28.41;45.76
60242;SHT30;46103;52.076;113.488;2023-07-13T06:12:48;28.39;46.15
60242;SHT30;46103;52.076;113.488;2023-07-13T06:15:51;28.96;45.25
60242;SHT30;46103;52.076;113.488;2023-07-13T06:18:54;29.37;43.91
60242;SHT30;46103;52.076;113.488;2023-07-13T06:21:57;29.43;43.87
60242;SHT30;46103;52.076;113.488;2023-07-13T06:25:01;30.08;42.02
60242;SHT30;46103;52.076;113.488;2023-07-13T06:28:04;29.80;41.92
60242;SHT30;46103;52.076;113.488;2023-07-13T06:31:08;29.25;42.27
60242;SHT30;46103;52.076;113.488;2023-07-13T06:34:12;28.67;43.48
60242;SHT30;46103;52.076;113.488;2023-07-13T06:37:16;28.78;43.01
60242;SHT30;46103;52.076;113.488;2023-07-13T06:40:19;28.87;43.29
60242;SHT30;46103;52.076;113.488;2023-07-13T06:43:23;29.25;43.49
60242;SHT30;46103;52.076;113.488;2023-07-13T06:46:42;28.83;43.14
60242;SHT30;46103;52.076;113.488;2023-07-13T06:50:00;28.00;44.03
60242;SHT30;46103;52.076;113.488;2023-07-13T06:53:06;27.51;44.83
60242;SHT30;46103;52.076;113.488;2023-07-13T06:56:11;27.30;45.69
60242;SHT30;46103;52.076;113.488;2023-07-13T06:59:15;27.69;44.49
60242;SHT30;46103;52.076;113.488;2023-07-13T07:02:19;27.88;42.88
60242;SHT30;46103;52.076;113.488;2023-07-13T07:05:23;28.14;42.40
60242;SHT30;46103;52.076;113.488;2023-07-13T07:08:30;28.79;40.87
60242;SHT30;46103;52.076;113.488;2023-07-13T07:11:34;28.65;39.59
60242;SHT30;46103;52.076;113.488;2023-07-13T07:14:46;27.76;41.22
60242;SHT30;46103;52.076;113.488;2023-07-13T07:17:51;27.24;42.07
60242;SHT30;46103;52.076;113.488;2023-07-13T07:20:55;27.04;42.09
60242;SHT30;46103;52.076;113.488;2023-07-13T07:24:01;27.29;41.80
60242;SHT30;46103;52.076;113.488;2023-07-13T07:27:06;27.52;41.14
60242;SHT30;46103;52.076;113.488;2023-07-13T07:30:13;27.63;40.89
60242;SHT30;46103;52.076;113.488;2023-07-13T07:33:21;27.62;41.39
60242;SHT30;46103;52.076;113.488;2023-07-13T07:36:25;27.78;40.65
60242;SHT30;46103;52.076;113.488;2023-07-13T07:39:32;27.70;41.02
60242;SHT30;46103;52.076;113.488;2023-07-13T07:42:37;27.90;40.76
60242;SHT30;46103;52.076;113.488;2023-07-13T07:45:43;28.21;39.96
60242;SHT30;46103;52.076;113.488;2023-07-13T07:48:47;28.55;39.40
60242;SHT30;46103;52.076;113.488;2023-07-13T07:51:52;28.88;38.96
60242;SHT30;46103;52.076;113.488;2023-07-13T07:54:55;30.29;37.29
60242;SHT30;46103;52.076;113.488;2023-07-13T07:58:21;31.90;34.70
60242;SHT30;46103;52.076;113.488;2023-07-13T08:01:26;31.59;33.72
60242;SHT30;46103;52.076;113.488;2023-07-13T08:04:33;31.41;33.56
60242;SHT30;46103;52.076;113.488;2023-07-13T08:07:39;30.44;34.08
60242;SHT30;46103;52.076;113.488;2023-07-13T08:10:43;30.46;34.80
60242;SHT30;46103;52.076;113.488;2023-07-13T08:13:46;30.15;34.84
60242;SHT30;46103;52.076;113.488;2023-07-13T08:16:52;29.37;35.46
60242;SHT30;46103;52.076;113.488;2023-07-13T08:19:56;28.96;36.18
60242;SHT30;46103;52.076;113.488;2023-07-13T08:23:00;28.32;37.50
60242;SHT30;46103;52.076;113.488;2023-07-13T08:26:04;27.97;38.30
60242;SHT30;46103;52.076;113.488;2023-07-13T08:29:07;27.81;38.69
60242;SHT30;46103;52.076;113.488;2023-07-13T08:32:11;27.35;39.05
60242;SHT30;46103;52.076;113.488;2023-07-13T08:35:15;27.08;40.09
60242;SHT30;46103;52.076;113.488;2023-07-13T08:38:18;26.94;40.73
60242;SHT30;46103;52.076;113.488;2023-07-13T08:41:22;26.83;41.44
60242;SHT30;46103;52.076;113.488;2023-07-13T08:44:27;26.27;43.20
60242;SHT30;46103;52.076;113.488;2023-07-13T08:47:35;25.77;44.99
60242;SHT30;46103;52.076;113.488;2023-07-13T08:50:47;25.47;45.83
60242;SHT30;46103;52.076;113.488;2023-07-13T08:54:04;25.39;46.60
60242;SHT30;46103;52.076;113.488;2023-07-13T08:57:13;25.28;47.43
60242;SHT30;46103;52.076;113.488;2023-07-13T09:00:17;25.26;47.21
60242;SHT30;46103;52.076;113.488;2023-07-13T09:03:22;25.17;47.21
60242;SHT30;46103;52.076;113.488;2023-07-13T09:06:30;25.01;47.32
60242;SHT30;46103;52.076;113.488;2023-07-13T09:16:11;25.19;46.48
60242;SHT30;46103;52.076;113.488;2023-07-13T09:19:19;24.97;47.13
60242;SHT30;46103;52.076;113.488;2023-07-13T09:22:25;24.67;46.72
60242;SHT30;46103;52.076;113.488;2023-07-13T09:25:34;24.61;46.19
60242;SHT30;46103;52.076;113.488;2023-07-13T09:28:41;24.50;46.60
60242;SHT30;46103;52.076;113.488;2023-07-13T09:31:46;24.46;46.33
60242;SHT30;46103;52.076;113.488;2023-07-13T09:34:53;24.36;46.53
60242;SHT30;46103;52.076;113.488;2023-07-13T09:37:58;24.08;45.51
60242;SHT30;46103;52.076;113.488;2023-07-13T09:44:16;23.89;45.33
60242;SHT30;46103;52.076;113.488;2023-07-13T09:47:22;23.98;45.00
60242;SHT30;46103;52.076;113.488;2023-07-13T09:50:28;23.94;44.95
60242;SHT30;46103;52.076;113.488;2023-07-13T09:53:34;24.04;44.88
60242;SHT30;46103;52.076;113.488;2023-07-13T09:56:40;23.98;45.15
60242;SHT30;46103;52.076;113.488;2023-07-13T09:59:46;23.93;45.42
60242;SHT30;46103;52.076;113.488;2023-07-13T10:06:30;23.89;46.13
60242;SHT30;46103;52.076;113.488;2023-07-13T10:09:37;23.94;46.36
60242;SHT30;46103;52.076;113.488;2023-07-13T10:12:43;24.09;46.30
60242;SHT30;46103;52.076;113.488;2023-07-13T10:15:47;24.14;46.58
60242;SHT30;46103;52.076;113.488;2023-07-13T10:18:55;24.14;46.91
60242;SHT30;46103;52.076;113.488;2023-07-13T10:22:01;24.11;47.34
60242;SHT30;46103;52.076;113.488;2023-07-13T10:25:18;24.02;47.70
60242;SHT30;46103;52.076;113.488;2023-07-13T10:28:33;23.98;47.77
60242;SHT30;46103;52.076;113.488;2023-07-13T10:31:40;23.87;47.81
60242;SHT30;46103;52.076;113.488;2023-07-13T10:34:46;24.02;47.92
60242;SHT30;46103;52.076;113.488;2023-07-13T10:41:04;24.16;47.63
60242;SHT30;46103;52.076;113.488;2023-07-13T10:44:18;24.37;47.23
60242;SHT30;46103;52.076;113.488;2023-07-13T10:47:22;24.36;47.32
60242;SHT30;46103;52.076;113.488;2023-07-13T10:50:28;24.70;46.86
60242;SHT30;46103;52.076;113.488;2023-07-13T10:53:35;25.50;45.42
60242;SHT30;46103;52.076;113.488;2023-07-13T10:56:39;27.08;42.57
60242;SHT30;46103;52.076;113.488;2023-07-13T10:59:47;27.35;41.91
60242;SHT30;46103;52.076;113.488;2023-07-13T11:02:57;27.15;42.07
60242;SHT30;46103;52.076;113.488;2023-07-13T11:06:18;26.80;42.90
60242;SHT30;46103;52.076;113.488;2023-07-13T11:09:39;26.84;42.56
60242;SHT30;46103;52.076;113.488;2023-07-13T11:12:52;26.80;42.89
60242;SHT30;46103;52.076;113.488;2023-07-13T11:15:56;26.62;43.12
60242;SHT30;46103;52.076;113.488;2023-07-13T11:25:26;25.83;44.31
60242;SHT30;46103;52.076;113.488;2023-07-13T11:28:31;25.47;44.44
60242;SHT30;46103;52.076;113.488;2023-07-13T11:31:36;25.38;44.67
60242;SHT30;46103;52.076;113.488;2023-07-13T11:34:40;25.62;44.36
60242;SHT30;46103;52.076;113.488;2023-07-13T11:37:45;26.35;43.64
60242;SHT30;46103;52.076;113.488;2023-07-13T11:40:51;29.33;39.04
60242;SHT30;46103;52.076;113.488;2023-07-13T11:44:06;31.41;35.88
60242;SHT30;46103;52.076;113.488;2023-07-13T11:47:14;32.80;33.56
60242;SHT30;46103;52.076;113.488;2023-07-13T11:50:21;33.44;32.63
60242;SHT30;46103;52.076;113.488;2023-07-13T11:53:26;34.03;31.99
60242;SHT30;46103;52.076;113.488;2023-07-13T11:56:34;34.47;31.43
60242;SHT30;46103;52.076;113.488;2023-07-13T11:59:43;34.78;30.90
60242;SHT30;46103;52.076;113.488;2023-07-13T12:02:50;34.33;31.12
60242;SHT30;46103;52.076;113.488;2023-07-13T12:06:00;34.16;31.82
60242;SHT30;46103;52.076;113.488;2023-07-13T12:09:10;33.44;32.82
60242;SHT30;46103;52.076;113.488;2023-07-13T12:12:20;32.68;33.52
60242;SHT30;46103;52.076;113.488;2023-07-13T12:15:28;31.73;35.13
60242;SHT30;46103;52.076;113.488;2023-07-13T12:18:35;31.21;36.21
60242;SHT30;46103;52.076;113.488;2023-07-13T12:21:41;30.61;36.95
60242;SHT30;46103;52.076;113.488;2023-07-13T12:24:47;29.38;38.49
60242;SHT30;46103;52.076;113.488;2023-07-13T12:27:53;27.85;41.10
60242;SHT30;46103;52.076;113.488;2023-07-13T12:31:01;26.80;43.43
60242;SHT30;46103;52.076;113.488;2023-07-13T12:34:10;26.04;45.33
60242;SHT30;46103;52.076;113.488;2023-07-13T12:37:17;25.55;46.32
60242;SHT30;46103;52.076;113.488;2023-07-13T12:40:20;25.15;47.27
60242;SHT30;46103;52.076;113.488;2023-07-13T12:43:25;24.83;47.99
60242;SHT30;46103;52.076;113.488;2023-07-13T12:46:30;24.50;48.75
60242;SHT30;46103;52.076;113.488;2023-07-13T12:49:34;24.25;50.31
60242;SHT30;46103;52.076;113.488;2023-07-13T12:52:38;24.02;51.04
60242;SHT30;46103;52.076;113.488;2023-07-13T12:55:41;23.82;51.44
60242;SHT30;46103;52.076;113.488;2023-07-13T12:58:46;23.51;51.31
60242;SHT30;46103;52.076;113.488;2023-07-13T13:01:52;23.29;51.59
60242;SHT30;46103;52.076;113.488;2023-07-13T13:04:58;23.06;52.50
60242;SHT30;46103;52.076;113.488;2023-07-13T13:08:07;22.91;53.24
60242;SHT30;46103;52.076;113.488;2023-07-13T13:11:29;22.72;53.88
60242;SHT30;46103;52.076;113.488;2023-07-13T13:14:34;22.63;54.11
60242;SHT30;46103;52.076;113.488;2023-07-13T13:17:40;22.48;54.26
60242;SHT30;46103;52.076;113.488;2023-07-13T13:20:43;22.34;54.87
60242;SHT30;46103;52.076;113.488;2023-07-13T13:23:47;22.20;56.19
60242;SHT30;46103;52.076;113.488;2023-07-13T13:26:51;22.06;55.86
60242;SHT30;46103;52.076;113.488;2023-07-13T13:29:57;21.89;56.91
60242;SHT30;46103;52.076;113.488;2023-07-13T13:33:00;21.74;57.49
60242;SHT30;46103;52.076;113.488;2023-07-13T13:36:04;21.51;58.70
60242;SHT30;46103;52.076;113.488;2023-07-13T13:39:50;21.33;58.68
60242;SHT30;46103;52.076;113.488;2023-07-13T13:42:35;21.16;59.61
60242;SHT30;46103;52.076;113.488;2023-07-13T13:45:39;21.07;59.78
60242;SHT30;46103;52.076;113.488;2023-07-13T13:48:45;20.99;59.76
60242;SHT30;46103;52.076;113.488;2023-07-13T13:51:48;20.87;60.00
60242;SHT30;46103;52.076;113.488;2023-07-13T13:54:53;20.76;60.11
60242;SHT30;46103;52.076;113.488;2023-07-13T13:57:58;20.75;58.34
60242;SHT30;46103;52.076;113.488;2023-07-13T14:01:03;20.68;58.70
60242;SHT30;46103;52.076;113.488;2023-07-13T14:04:18;20.61;57.95
60242;SHT30;46103;52.076;113.488;2023-07-13T14:11:53;20.38;58.45
60242;SHT30;46103;52.076;113.488;2023-07-13T14:14:56;20.35;60.45
60242;SHT30;46103;52.076;113.488;2023-07-13T14:18:02;20.20;61.46
60242;SHT30;46103;52.076;113.488;2023-07-13T14:21:23;20.06;62.01
60242;SHT30;46103;52.076;113.488;2023-07-13T14:24:27;20.04;60.62
60242;SHT30;46103;52.076;113.488;2023-07-13T14:27:31;20.03;59.65
60242;SHT30;46103;52.076;113.488;2023-07-13T14:30:35;20.04;60.02
60242;SHT30;46103;52.076;113.488;2023-07-13T14:33:40;20.03;60.75
60242;SHT30;46103;52.076;113.488;2023-07-13T14:36:45;19.97;60.70
60242;SHT30;46103;52.076;113.488;2023-07-13T14:39:49;19.93;61.03
60242;SHT30;46103;52.076;113.488;2023-07-13T14:42:55;19.84;60.68
60242;SHT30;46103;52.076;113.488;2023-07-13T14:45:59;19.77;61.05
60242;SHT30;46103;52.076;113.488;2023-07-13T14:49:07;19.65;61.59
60242;SHT30;46103;52.076;113.488;2023-07-13T14:52:20;19.52;61.40
60242;SHT30;46103;52.076;113.488;2023-07-13T14:55:28;19.55;60.69
60242;SHT30;46103;52.076;113.488;2023-07-13T14:58:34;19.58;60.72
60242;SHT30;46103;52.076;113.488;2023-07-13T15:01:37;19.56;60.65
60242;SHT30;46103;52.076;113.488;2023-07-13T15:04:43;19.58;60.34
60242;SHT30;46103;52.076;113.488;2023-07-13T15:07:48;19.48;61.16
60242;SHT30;46103;52.076;113.488;2023-07-13T15:10:54;19.41;60.61
60242;SHT30;46103;52.076;113.488;2023-07-13T15:14:05;19.29;61.50
60242;SHT30;46103;52.076;113.488;2023-07-13T15:17:21;19.22;62.08
60242;SHT30;46103;52.076;113.488;2023-07-13T15:20:34;19.11;62.05
60242;SHT30;46103;52.076;113.488;2023-07-13T15:23:41;19.04;61.59
60242;SHT30;46103;52.076;113.488;2023-07-13T15:26:45;19.00;61.84
60242;SHT30;46103;52.076;113.488;2023-07-13T15:29:53;18.97;62.12
60242;SHT30;46103;52.076;113.488;2023-07-13T15:32:58;19.03;63.06
60242;SHT30;46103;52.076;113.488;2023-07-13T15:36:04;18.99;62.93
60242;SHT30;46103;52.076;113.488;2023-07-13T15:39:13;18.93;63.33
60242;SHT30;46103;52.076;113.488;2023-07-13T15:42:19;18.89;63.59
60242;SHT30;46103;52.076;113.488;2023-07-13T15:45:23;18.81;63.79
60242;SHT30;46103;52.076;113.488;2023-07-13T15:48:31;18.73;63.31
60242;SHT30;46103;52.076;113.488;2023-07-13T15:51:34;18.57;61.88
60242;SHT30;46103;52.076;113.488;2023-07-13T15:54:39;18.51;62.10
60242;SHT30;46103;52.076;113.488;2023-07-13T15:57:46;18.42;62.64
60242;SHT30;46103;52.076;113.488;2023-07-13T16:00:51;18.31;63.10
60242;SHT30;46103;52.076;113.488;2023-07-13T16:03:56;18.18;63.85
60242;SHT30;46103;52.076;113.488;2023-07-13T16:07:01;18.21;64.41
60242;SHT30;46103;52.076;113.488;2023-07-13T16:10:05;18.18;64.25
60242;SHT30;46103;52.076;113.488;2023-07-13T16:13:14;18.02;64.20
60242;SHT30;46103;52.076;113.488;2023-07-13T16:16:18;17.96;64.70
60242;SHT30;46103;52.076;113.488;2023-07-13T16:19:23;17.87;65.29
60242;SHT30;46103;52.076;113.488;2023-07-13T16:22:31;17.74;66.10
60242;SHT30;46103;52.076;113.488;2023-07-13T16:25:36;17.67;66.52
60242;SHT30;46103;52.076;113.488;2023-07-13T16:28:40;17.56;66.74
60242;SHT30;46103;52.076;113.488;2023-07-13T16:32:00;17.46;66.94
60242;SHT30;46103;52.076;113.488;2023-07-13T16:35:10;17.32;68.49
60242;SHT30;46103;52.076;113.488;2023-07-13T16:38:18;17.22;69.39
60242;SHT30;46103;52.076;113.488;2023-07-13T16:41:22;17.16;69.26
60242;SHT30;46103;52.076;113.488;2023-07-13T16:44:26;17.19;69.97
60242;SHT30;46103;52.076;113.488;2023-07-13T16:47:31;17.22;69.67
60242;SHT30;46103;52.076;113.488;2023-07-13T16:50:35;17.26;69.53
60242;SHT30;46103;52.076;113.488;2023-07-13T16:53:40;17.18;68.88
60242;SHT30;46103;52.076;113.488;2023-07-13T16:56:47;17.04;69.24
60242;SHT30;46103;52.076;113.488;2023-07-13T16:59:53;17.02;69.59
60242;SHT30;46103;52.076;113.488;2023-07-13T17:03:01;16.98;69.65
60242;SHT30;46103;52.076;113.488;2023-07-13T17:06:20;16.92;69.84
60242;SHT30;46103;52.076;113.488;2023-07-13T17:09:27;16.88;70.08
60242;SHT30;46103;52.076;113.488;2023-07-13T17:12:31;16.84;69.81
60242;SHT30;46103;52.076;113.488;2023-07-13T17:15:37;16.73;70.51
60242;SHT30;46103;52.076;113.488;2023-07-13T17:18:41;16.67;70.66
60242;SHT30;46103;52.076;113.488;2023-07-13T17:21:46;16.67;70.70
60242;SHT30;46103;52.076;113.488;2023-07-13T17:24:50;16.63;70.65
60242;SHT30;46103;52.076;113.488;2023-07-13T17:27:58;16.57;70.73
60242;SHT30;46103;52.076;113.488;2023-07-13T17:31:01;16.46;70.84
60242;SHT30;46103;52.076;113.488;2023-07-13T17:34:15;16.42;71.03
60242;SHT30;46103;52.076;113.488;2023-07-13T17:37:25;16.39;71.90
60242;SHT30;46103;52.076;113.488;2023-07-13T17:40:30;16.37;72.29
60242;SHT30;46103;52.076;113.488;2023-07-13T17:43:36;16.28;72.29
60242;SHT30;46103;52.076;113.488;2023-07-13T17:46:40;16.28;72.51
60242;SHT30;46103;52.076;113.488;2023-07-13T17:49:45;16.26;71.94
60242;SHT30;46103;52.076;113.488;2023-07-13T17:52:49;16.26;71.93
60242;SHT30;46103;52.076;113.488;2023-07-13T17:55:54;16.22;72.25
60242;SHT30;46103;52.076;113.488;2023-07-13T17:58:58;16.13;71.86
60242;SHT30;46103;52.076;113.488;2023-07-13T18:02:08;16.05;72.61
60242;SHT30;46103;52.076;113.488;2023-07-13T18:05:13;15.99;72.57
60242;SHT30;46103;52.076;113.488;2023-07-13T18:08:22;15.91;72.33
60242;SHT30;46103;52.076;113.488;2023-07-13T18:11:26;15.84;72.49
60242;SHT30;46103;52.076;113.488;2023-07-13T18:14:32;15.75;72.98
60242;SHT30;46103;52.076;113.488;2023-07-13T18:17:39;15.64;73.29
60242;SHT30;46103;52.076;113.488;2023-07-13T18:20:43;15.58;73.57
60242;SHT30;46103;52.076;113.488;2023-07-13T18:23:48;15.60;73.70
60242;SHT30;46103;52.076;113.488;2023-07-13T18:26:52;15.51;72.99
60242;SHT30;46103;52.076;113.488;2023-07-13T18:29:56;15.50;73.03
60242;SHT30;46103;52.076;113.488;2023-07-13T18:33:01;15.43;72.73
60242;SHT30;46103;52.076;113.488;2023-07-13T18:36:06;15.39;73.24
60242;SHT30;46103;52.076;113.488;2023-07-13T18:39:14;15.32;73.47
60242;SHT30;46103;52.076;113.488;2023-07-13T18:42:18;15.30;73.72
60242;SHT30;46103;52.076;113.488;2023-07-13T18:45:27;15.20;73.98
60242;SHT30;46103;52.076;113.488;2023-07-13T18:48:31;15.18;74.29
60242;SHT30;46103;52.076;113.488;2023-07-13T18:51:35;15.18;74.42
60242;SHT30;46103;52.076;113.488;2023-07-13T18:54:39;15.16;74.41
60242;SHT30;46103;52.076;113.488;2023-07-13T18:57:44;15.13;74.36
60242;SHT30;46103;52.076;113.488;2023-07-13T19:00:49;15.13;74.38
60242;SHT30;46103;52.076;113.488;2023-07-13T19:03:53;15.07;74.44
60242;SHT30;46103;52.076;113.488;2023-07-13T19:06:57;15.00;74.44
60242;SHT30;46103;52.076;113.488;2023-07-13T19:10:01;14.98;74.79
60242;SHT30;46103;52.076;113.488;2023-07-13T19:13:07;14.91;74.80
60242;SHT30;46103;52.076;113.488;2023-07-13T19:16:13;14.91;74.92
60242;SHT30;46103;52.076;113.488;2023-07-13T19:19:18;14.89;74.81
60242;SHT30;46103;52.076;113.488;2023-07-13T19:22:22;14.87;74.33
60242;SHT30;46103;52.076;113.488;2023-07-13T19:25:28;14.78;74.28
60242;SHT30;46103;52.076;113.488;2023-07-13T19:28:35;14.71;74.00